WXM80 ListenWXM80 Stop

You find our weather info also at:

UK Metoffice

WeatherCloud

Weather Underground

Northeastern Weather Network

AWEKAS

Citizen Weather Observer Program (CWOP)

HAMweather, WeatherForYou, PWS Weather


Weather Underground History page Text

Daily Summary for February 6, 2016 Units:  English    Metric   Both
« Previous Day
Next Day »
Daily Weekly Monthly Yearly Custom
  High: Low: Average:
Temperature: 41.0 °F 22.5 °F 32.3 °F
Dew Point: 29.8 °F 19.7 °F 26.2 °F
Humidity: 93 % 61 % 79 %
Wind Speed: 8.0 mph 0.0 mph 2.5 mph
Wind Gust: 13.8 mph - -
Wind:- - WSW
Pressure: 30.42 in 30.24 in -
Precipitation: 0.01 in    
Historical Graphs
 
 
Tabular Data for February 6, 2016
Time Temperature Dew Point Pressure Wind Wind Speed Wind Gust Humidity Rainfall Rate (Hourly)
00:03 30.7 °F 23.7 °F 30.30 in NNW 2.5 mph 5.8 mph 75 % 0.00 in
00:08 30.6 °F 23.6 °F 30.30 in NW 1.2 mph 5.8 mph 75 % 0.00 in
00:14 30.5 °F 23.8 °F 30.30 in NW 2.8 mph 6.0 mph 76 % 0.00 in
00:19 30.4 °F 23.4 °F 30.30 in NNW 1.4 mph 6.9 mph 75 % 0.00 in
00:24 30.4 °F 23.4 °F 30.30 in NNW 1.7 mph 5.8 mph 75 % 0.00 in
00:29 30.3 °F 23.3 °F 30.30 in NW 2.6 mph 5.8 mph 75 % 0.00 in
00:34 30.3 °F 23.6 °F 30.30 in NNW 2.8 mph 4.6 mph 76 % 0.00 in
00:39 30.2 °F 23.5 °F 30.30 in NNW 1.3 mph 3.0 mph 76 % 0.00 in
00:44 30.1 °F 23.8 °F 30.30 in NNW 2.3 mph 4.6 mph 77 % 0.00 in
00:49 30.0 °F 23.7 °F 30.30 in NW 1.9 mph 4.6 mph 77 % 0.00 in
00:54 29.9 °F 23.6 °F 30.31 in NW 1.1 mph 2.0 mph 77 % 0.00 in
00:59 29.9 °F 23.3 °F 30.31 in WNW 3.3 mph 4.6 mph 76 % 0.00 in
01:05 29.8 °F 23.2 °F 30.31 in NW 1.1 mph 3.5 mph 76 % 0.00 in
01:10 29.8 °F 22.8 °F 30.31 in WNW 2.2 mph 5.8 mph 75 % 0.00 in
01:15 29.7 °F 23.4 °F 30.31 in WNW 1.9 mph 4.6 mph 77 % 0.00 in
01:20 29.7 °F 23.4 °F 30.31 in WNW 0.3 mph 3.5 mph 77 % 0.00 in
01:25 29.6 °F 23.3 °F 30.31 in North 0.9 mph 3.5 mph 77 % 0.00 in
01:30 29.5 °F 23.5 °F 30.32 in NW 3.1 mph 4.6 mph 78 % 0.00 in
01:35 29.4 °F 23.1 °F 30.33 in WNW 0.7 mph 2.3 mph 77 % 0.00 in
01:40 29.4 °F 23.1 °F 30.33 in NW 0.2 mph 3.5 mph 77 % 0.00 in
01:45 29.3 °F 23.6 °F 30.33 in NW 0.3 mph 2.0 mph 79 % 0.01 in
01:50 29.2 °F 23.8 °F 30.33 in NW 1.3 mph 4.0 mph 80 % 0.01 in
01:56 29.1 °F 24.0 °F 30.33 in NW 2.1 mph 4.6 mph 81 % 0.01 in
02:01 29.0 °F 24.2 °F 30.33 in NW 0.5 mph 2.3 mph 82 % 0.01 in
02:06 28.9 °F 23.5 °F 30.34 in NW 0.9 mph 3.5 mph 80 % 0.01 in
02:11 28.9 °F 23.2 °F 30.34 in West 1.1 mph 2.3 mph 79 % 0.01 in
02:16 28.8 °F 23.1 °F 30.34 in WNW 0.8 mph 3.5 mph 79 % 0.01 in
02:21 28.8 °F 23.4 °F 30.34 in WNW 0.9 mph 3.5 mph 80 % 0.01 in
02:26 28.7 °F 23.6 °F 30.34 in WNW 0.3 mph 2.0 mph 81 % 0.01 in
02:31 28.7 °F 23.6 °F 30.33 in Calm     81 % 0.01 in
02:36 28.5 °F 23.4 °F 30.34 in North 0.2 mph 2.3 mph 81 % 0.01 in
02:41 28.5 °F 23.7 °F 30.33 in Calm     82 % 0.01 in
02:47 28.3 °F 23.5 °F 30.33 in Calm   1.2 mph 82 % 0.00 in
02:52 28.2 °F 23.4 °F 30.34 in North 0.5 mph 1.2 mph 82 % 0.00 in
03:07 27.6 °F 22.5 °F 30.33 in North 0.1 mph 2.3 mph 81 % 0.00 in
03:12 27.4 °F 22.9 °F 30.34 in North 1.1 mph 2.3 mph 83 % 0.00 in
03:17 27.1 °F 22.3 °F 30.33 in North 1.4 mph 2.0 mph 82 % 0.00 in
03:22 26.9 °F 22.4 °F 30.33 in West 0.2 mph 2.3 mph 83 % 0.00 in
03:27 26.7 °F 22.2 °F 30.33 in Calm     83 % 0.00 in
03:32 26.5 °F 22.3 °F 30.33 in Calm   1.2 mph 84 % 0.00 in
03:38 26.4 °F 22.2 °F 30.34 in West 0.9 mph 2.3 mph 84 % 0.00 in
03:43 26.3 °F 22.4 °F 30.34 in West 1.1 mph 2.3 mph 85 % 0.00 in
03:48 26.2 °F 22.3 °F 30.34 in West 1.2 mph 2.3 mph 85 % 0.00 in
03:53 26.0 °F 21.8 °F 30.34 in West 1.7 mph 2.3 mph 84 % 0.00 in
04:03 25.6 °F 21.7 °F 30.33 in West 1.7 mph 3.0 mph 85 % 0.00 in
04:08 25.4 °F 21.5 °F 30.34 in West 0.9 mph 2.3 mph 85 % 0.00 in
04:13 25.3 °F 21.4 °F 30.34 in West 1.4 mph 2.3 mph 85 % 0.00 in
04:23 25.1 °F 21.5 °F 30.34 in West 1.7 mph 3.5 mph 86 % 0.00 in
04:34 24.9 °F 21.3 °F 30.35 in West 1.5 mph 2.3 mph 86 % 0.00 in
04:44 24.7 °F 21.4 °F 30.35 in Calm     87 % 0.00 in
04:49 24.7 °F 21.4 °F 30.35 in West 2.4 mph 3.5 mph 87 % 0.00 in
04:59 24.5 °F 21.2 °F 30.36 in West 1.8 mph 3.5 mph 87 % 0.00 in
05:04 24.3 °F 21.0 °F 30.36 in West 1.0 mph 3.5 mph 87 % 0.00 in
05:09 24.2 °F 20.9 °F 30.36 in West 0.7 mph 2.3 mph 87 % 0.00 in
05:14 24.0 °F 20.7 °F 30.36 in West 0.4 mph 2.3 mph 87 % 0.00 in
05:20 24.0 °F 20.7 °F 30.37 in Calm     87 % 0.00 in
05:25 23.8 °F 20.5 °F 30.38 in West 0.2 mph 1.2 mph 87 % 0.00 in
05:30 23.6 °F 20.3 °F 30.38 in West 0.6 mph 1.2 mph 87 % 0.00 in
05:35 23.4 °F 20.1 °F 30.38 in West 1.8 mph 2.3 mph 87 % 0.00 in
05:40 23.3 °F 20.3 °F 30.38 in West 1.5 mph 2.3 mph 88 % 0.00 in
05:45 23.1 °F 20.1 °F 30.38 in West 2.0 mph 3.5 mph 88 % 0.00 in
05:50 23.1 °F 20.1 °F 30.38 in West 1.8 mph 2.3 mph 88 % 0.00 in
05:55 23.0 °F 20.0 °F 30.38 in West 1.5 mph 2.3 mph 88 % 0.00 in
06:00 22.9 °F 20.1 °F 30.37 in West 1.2 mph 2.3 mph 89 % 0.00 in
06:05 22.8 °F 20.0 °F 30.38 in West 1.3 mph 2.0 mph 89 % 0.00 in
06:11 22.7 °F 19.9 °F 30.37 in West 2.2 mph 3.5 mph 89 % 0.00 in
06:16 22.7 °F 19.9 °F 30.38 in West 1.0 mph 3.5 mph 89 % 0.00 in
06:21 22.7 °F 19.9 °F 30.38 in West 1.7 mph 2.3 mph 89 % 0.00 in
06:26 22.7 °F 19.9 °F 30.38 in West 1.1 mph 3.5 mph 89 % 0.00 in
06:31 22.7 °F 20.2 °F 30.38 in West 1.3 mph 3.5 mph 90 % 0.00 in
06:36 22.6 °F 20.1 °F 30.38 in West 0.9 mph 2.3 mph 90 % 0.00 in
06:41 22.5 °F 19.7 °F 30.39 in Calm     89 % 0.00 in
06:46 22.5 °F 19.7 °F 30.38 in West 1.5 mph 2.3 mph 89 % 0.00 in
06:51 22.5 °F 20.0 °F 30.39 in West 1.2 mph 2.3 mph 90 % 0.00 in
06:56 22.5 °F 20.0 °F 30.39 in SW 0.7 mph 2.0 mph 90 % 0.00 in
07:02 22.6 °F 20.1 °F 30.38 in SW 2.2 mph 3.5 mph 90 % 0.00 in
07:07 22.7 °F 20.5 °F 30.39 in SW 1.0 mph 2.3 mph 91 % 0.00 in
07:12 22.7 °F 20.5 °F 30.39 in Calm     91 % 0.00 in
07:17 22.7 °F 20.2 °F 30.39 in Calm     90 % 0.00 in
07:22 22.8 °F 20.6 °F 30.40 in SW 0.2 mph 1.2 mph 91 % 0.00 in
07:27 22.8 °F 20.6 °F 30.40 in SW 1.3 mph 2.3 mph 91 % 0.00 in
07:32 22.9 °F 20.7 °F 30.39 in SW 2.0 mph 3.5 mph 91 % 0.00 in
07:37 23.0 °F 20.8 °F 30.39 in SW 1.8 mph 3.5 mph 91 % 0.00 in
07:42 23.1 °F 20.9 °F 30.39 in SW 1.2 mph 2.3 mph 91 % 0.00 in
07:47 23.3 °F 21.1 °F 30.40 in SW 0.8 mph 3.5 mph 91 % 0.00 in
07:53 23.5 °F 21.3 °F 30.40 in SW 2.0 mph 4.0 mph 91 % 0.00 in
07:58 23.8 °F 21.8 °F 30.40 in SW 2.7 mph 3.5 mph 92 % 0.00 in
08:03 24.0 °F 22.0 °F 30.41 in SW 1.7 mph 3.5 mph 92 % 0.00 in
08:08 24.3 °F 22.3 °F 30.40 in SW 1.0 mph 3.5 mph 92 % 0.00 in
08:13 24.8 °F 23.1 °F 30.40 in SW 1.3 mph 3.0 mph 93 % 0.00 in
08:18 25.3 °F 23.6 °F 30.41 in South 2.0 mph 3.5 mph 93 % 0.00 in
08:23 25.9 °F 24.2 °F 30.41 in SSW 2.5 mph 3.5 mph 93 % 0.00 in
08:28 26.4 °F 24.7 °F 30.40 in SW 1.5 mph 3.5 mph 93 % 0.00 in
08:38 27.6 °F 25.8 °F 30.40 in SW 2.5 mph 3.5 mph 93 % 0.00 in
08:44 28.3 °F 26.5 °F 30.40 in SW 2.8 mph 4.0 mph 93 % 0.00 in
08:49 29.0 °F 26.7 °F 30.40 in SW 2.3 mph 4.6 mph 91 % 0.00 in
08:59 30.5 °F 27.6 °F 30.41 in SW 4.4 mph 9.0 mph 89 % 0.00 in
09:04 31.5 °F 27.5 °F 30.40 in West 3.5 mph 6.9 mph 85 % 0.00 in
09:09 32.3 °F 28.0 °F 30.40 in SW 6.1 mph 9.2 mph 84 % 0.00 in
09:14 33.0 °F 28.1 °F 30.41 in SW 3.0 mph 8.1 mph 82 % 0.00 in
09:19 33.5 °F 27.7 °F 30.41 in WSW 3.0 mph 6.9 mph 79 % 0.00 in
09:29 34.2 °F 27.7 °F 30.41 in SSW 3.3 mph 11.5 mph 77 % 0.00 in
09:35 34.5 °F 28.3 °F 30.42 in SW 6.4 mph 8.0 mph 78 % 0.00 in
09:40 34.8 °F 29.0 °F 30.42 in WSW 4.7 mph 10.0 mph 79 % 0.00 in
09:45 35.3 °F 28.8 °F 30.42 in SW 3.8 mph 6.9 mph 77 % 0.00 in
09:50 35.7 °F 28.9 °F 30.41 in WSW 4.4 mph 9.2 mph 76 % 0.00 in
09:55 36.0 °F 27.8 °F 30.41 in NW 4.7 mph 6.9 mph 72 % 0.00 in
10:00 36.3 °F 28.8 °F 30.41 in SW 3.3 mph 4.6 mph 74 % 0.00 in
10:05 36.5 °F 29.7 °F 30.41 in WSW 2.0 mph 5.8 mph 76 % 0.00 in
10:10 36.7 °F 28.9 °F 30.41 in SW 4.4 mph 7.0 mph 73 % 0.00 in
10:15 37.1 °F 28.6 °F 30.41 in SW 5.5 mph 7.0 mph 71 % 0.00 in
10:21 37.1 °F 28.2 °F 30.41 in WSW 4.9 mph 6.9 mph 70 % 0.00 in
10:26 37.4 °F 28.9 °F 30.40 in WSW 4.5 mph 6.9 mph 71 % 0.00 in
10:31 37.7 °F 28.4 °F 30.40 in SSW 3.7 mph 6.9 mph 69 % 0.00 in
10:36 38.2 °F 29.6 °F 30.40 in SW 2.9 mph 6.9 mph 71 % 0.00 in
10:41 38.4 °F 28.4 °F 30.40 in SW 3.9 mph 5.0 mph 67 % 0.00 in
10:46 38.4 °F 29.5 °F 30.40 in WSW 0.5 mph 3.5 mph 70 % 0.00 in
10:51 38.6 °F 28.6 °F 30.40 in WSW 4.3 mph 8.1 mph 67 % 0.00 in
10:56 38.5 °F 28.5 °F 30.39 in WSW 1.8 mph 6.9 mph 67 % 0.00 in
11:01 38.7 °F 29.0 °F 30.39 in WSW 5.1 mph 7.0 mph 68 % 0.00 in
11:06 38.9 °F 29.2 °F 30.39 in WSW 4.9 mph 6.9 mph 68 % 0.00 in
11:12 39.0 °F 29.3 °F 30.39 in West 3.2 mph 6.9 mph 68 % 0.00 in
11:17 39.0 °F 28.6 °F 30.39 in WSW 3.1 mph 8.1 mph 66 % 0.00 in
11:22 39.1 °F 29.4 °F 30.38 in WSW 3.6 mph 6.9 mph 68 % 0.00 in
11:27 39.0 °F 29.7 °F 30.38 in WSW 4.6 mph 6.9 mph 69 % 0.00 in
11:32 39.1 °F 29.8 °F 30.38 in SSW 3.7 mph 6.9 mph 69 % 0.00 in
11:37 39.3 °F 29.3 °F 30.37 in WSW 3.4 mph 4.6 mph 67 % 0.00 in
11:42 39.5 °F 29.1 °F 30.37 in West 2.6 mph 6.0 mph 66 % 0.00 in
11:47 39.7 °F 29.6 °F 30.37 in West 0.2 mph 3.5 mph 67 % 0.00 in
11:52 39.5 °F 28.3 °F 30.37 in WSW 5.8 mph 5.8 mph 64 % 0.00 in
11:57 39.3 °F 28.1 °F 30.36 in WSW 3.9 mph 9.2 mph 64 % 0.00 in
12:03 39.3 °F 29.6 °F 30.36 in SSW 3.7 mph 6.0 mph 68 % 0.00 in
12:08 39.3 °F 28.5 °F 30.36 in WSW 2.8 mph 6.9 mph 65 % 0.00 in
12:13 39.3 °F 28.1 °F 30.36 in SSW 5.1 mph 6.9 mph 64 % 0.00 in
12:18 39.3 °F 28.1 °F 30.35 in WSW 2.6 mph 4.6 mph 64 % 0.00 in
12:23 39.5 °F 29.1 °F 30.35 in South 4.7 mph 8.1 mph 66 % 0.00 in
12:28 39.6 °F 28.8 °F 30.35 in South 1.0 mph 4.6 mph 65 % 0.00 in
12:33 39.8 °F 28.6 °F 30.35 in SSW 3.5 mph 5.0 mph 64 % 0.00 in
12:38 39.7 °F 27.7 °F 30.35 in WSW 5.7 mph 10.4 mph 62 % 0.00 in
12:48 39.3 °F 28.1 °F 30.34 in SSW 3.0 mph 6.0 mph 64 % 0.00 in
12:54 39.3 °F 28.1 °F 30.33 in South 4.0 mph 6.9 mph 64 % 0.00 in
12:59 39.4 °F 29.0 °F 30.33 in SSW 2.7 mph 8.1 mph 66 % 0.00 in
13:04 39.6 °F 28.8 °F 30.33 in WSW 5.7 mph 6.9 mph 65 % 0.00 in
13:09 39.7 °F 28.1 °F 30.33 in South 3.9 mph 8.1 mph 63 % 0.00 in
13:14 39.7 °F 27.7 °F 30.32 in SSW 5.4 mph 9.2 mph 62 % 0.00 in
13:24 39.9 °F 29.1 °F 30.32 in SW 5.6 mph 11.5 mph 65 % 0.00 in
13:29 40.2 °F 29.4 °F 30.32 in SW 3.9 mph 6.0 mph 65 % 0.00 in
13:34 40.6 °F 29.0 °F 30.31 in WSW 5.6 mph 8.0 mph 63 % 0.00 in
13:39 40.8 °F 28.8 °F 30.31 in SW 7.7 mph 9.2 mph 62 % 0.00 in
13:45 41.0 °F 29.4 °F 30.31 in WSW 7.3 mph 9.2 mph 63 % 0.00 in
13:50 40.9 °F 29.7 °F 30.31 in SSW 4.0 mph 6.9 mph 64 % 0.00 in
13:55 40.9 °F 29.3 °F 30.31 in SSW 1.1 mph 2.0 mph 63 % 0.00 in
14:00 40.9 °F 28.9 °F 30.31 in SSW 2.7 mph 6.9 mph 62 % 0.00 in
14:05 40.6 °F 28.2 °F 30.31 in SSW 5.2 mph 9.2 mph 61 % 0.00 in
14:10 40.2 °F 28.2 °F 30.31 in WSW 4.4 mph 9.2 mph 62 % 0.00 in
14:15 39.8 °F 28.2 °F 30.31 in SSW 8.0 mph 11.5 mph 63 % 0.00 in
14:20 39.5 °F 27.9 °F 30.30 in SSW 6.4 mph 9.2 mph 63 % 0.00 in
14:25 39.4 °F 29.0 °F 30.30 in SW 5.3 mph 9.0 mph 66 % 0.00 in
14:30 39.2 °F 28.4 °F 30.30 in SSW 6.1 mph 11.5 mph 65 % 0.00 in
14:36 39.1 °F 28.7 °F 30.30 in SSW 4.3 mph 8.1 mph 66 % 0.00 in
14:41 39.0 °F 29.0 °F 30.30 in SW 6.4 mph 8.1 mph 67 % 0.00 in
14:46 38.8 °F 28.8 °F 30.29 in SSW 5.0 mph 8.0 mph 67 % 0.00 in
14:51 38.7 °F 28.3 °F 30.29 in South 2.7 mph 6.9 mph 66 % 0.00 in
14:56 38.6 °F 28.6 °F 30.29 in SSW 0.3 mph 4.6 mph 67 % 0.00 in
15:01 38.6 °F 28.9 °F 30.29 in South 5.5 mph 8.1 mph 68 % 0.00 in
15:11 38.3 °F 29.4 °F 30.29 in SSW 5.0 mph 13.8 mph 70 % 0.00 in
15:16 38.0 °F 29.1 °F 30.29 in SSW 4.0 mph 11.5 mph 70 % 0.00 in
15:21 37.9 °F 29.0 °F 30.29 in SSW 5.2 mph 6.9 mph 70 % 0.00 in
15:27 37.8 °F 29.2 °F 30.29 in South 4.2 mph 9.2 mph 71 % 0.00 in
15:32 37.7 °F 29.1 °F 30.28 in South 2.2 mph 8.1 mph 71 % 0.00 in
15:37 37.7 °F 29.1 °F 30.28 in SW 4.3 mph 8.0 mph 71 % 0.00 in
15:42 37.6 °F 29.0 °F 30.28 in South 4.1 mph 6.9 mph 71 % 0.00 in
15:47 37.5 °F 28.9 °F 30.28 in SW 1.7 mph 5.8 mph 71 % 0.00 in
15:52 37.4 °F 28.9 °F 30.28 in South 3.8 mph 8.0 mph 71 % 0.00 in
15:57 37.3 °F 28.8 °F 30.28 in South 4.0 mph 8.1 mph 71 % 0.00 in
16:02 37.3 °F 29.1 °F 30.27 in South 4.3 mph 8.1 mph 72 % 0.00 in
16:07 37.2 °F 29.0 °F 30.27 in SSE 3.1 mph 5.8 mph 72 % 0.00 in
16:12 37.1 °F 29.2 °F 30.27 in South 5.2 mph 8.0 mph 73 % 0.00 in
16:18 37.0 °F 29.1 °F 30.28 in SSW 2.0 mph 4.0 mph 73 % 0.00 in
16:23 36.9 °F 29.1 °F 30.28 in SW 2.2 mph 10.4 mph 73 % 0.00 in
16:28 36.9 °F 29.4 °F 30.27 in SSW 3.7 mph 5.0 mph 74 % 0.00 in
16:33 36.9 °F 29.4 °F 30.27 in SW 3.5 mph 4.6 mph 74 % 0.00 in
16:38 36.9 °F 29.4 °F 30.27 in SW 3.0 mph 4.0 mph 74 % 0.00 in
16:48 36.7 °F 29.2 °F 30.27 in South 2.9 mph 5.0 mph 74 % 0.00 in
16:53 36.6 °F 29.4 °F 30.28 in SW 0.7 mph 3.5 mph 75 % 0.00 in
16:58 36.5 °F 29.0 °F 30.27 in South 1.9 mph 3.5 mph 74 % 0.00 in
17:03 36.4 °F 29.2 °F 30.27 in South 2.7 mph 4.6 mph 75 % 0.00 in
17:09 36.4 °F 29.2 °F 30.27 in South 0.9 mph 2.3 mph 75 % 0.00 in
17:14 36.2 °F 29.0 °F 30.27 in SW 2.3 mph 3.5 mph 75 % 0.00 in
17:19 36.1 °F 28.9 °F 30.27 in SSW 3.5 mph 4.6 mph 75 % 0.00 in
17:29 35.9 °F 29.4 °F 30.28 in SSW 2.5 mph 3.5 mph 77 % 0.00 in
17:34 35.8 °F 29.3 °F 30.27 in South 1.2 mph 3.5 mph 77 % 0.00 in
17:39 35.6 °F 29.1 °F 30.27 in SSW 2.4 mph 3.5 mph 77 % 0.00 in
17:49 35.4 °F 28.9 °F 30.28 in SSW 1.1 mph 3.5 mph 77 % 0.00 in
18:00 35.2 °F 28.7 °F 30.27 in SW 0.9 mph 2.3 mph 77 % 0.00 in
18:05 35.1 °F 28.9 °F 30.28 in SW 0.7 mph 2.3 mph 78 % 0.00 in
18:10 35.0 °F 29.5 °F 30.28 in SW 1.4 mph 3.5 mph 80 % 0.00 in
18:15 34.8 °F 29.0 °F 30.28 in SW 0.9 mph 3.5 mph 79 % 0.00 in
18:20 34.6 °F 28.8 °F 30.28 in SSW 1.1 mph 3.5 mph 79 % 0.00 in
18:25 34.6 °F 28.8 °F 30.28 in SSW 1.3 mph 3.5 mph 79 % 0.00 in
18:30 34.4 °F 28.6 °F 30.28 in SSW 0.2 mph 3.5 mph 79 % 0.00 in
18:35 34.4 °F 28.9 °F 30.28 in Calm     80 % 0.00 in
18:40 34.3 °F 28.8 °F 30.28 in Calm     80 % 0.00 in
18:45 34.2 °F 29.0 °F 30.27 in SSW 0.1 mph 1.2 mph 81 % 0.00 in
18:56 33.9 °F 29.0 °F 30.27 in SW 1.0 mph 2.3 mph 82 % 0.00 in
19:01 33.8 °F 28.9 °F 30.26 in SSW 0.7 mph 3.0 mph 82 % 0.00 in
19:06 33.6 °F 28.7 °F 30.27 in Calm     82 % 0.00 in
19:11 33.5 °F 28.9 °F 30.27 in Calm   1.0 mph 83 % 0.00 in
19:16 33.4 °F 29.4 °F 30.27 in SSW 0.8 mph 2.3 mph 85 % 0.00 in
19:21 33.2 °F 29.2 °F 30.27 in SW 1.4 mph 4.0 mph 85 % 0.00 in
19:26 33.0 °F 29.0 °F 30.27 in SSW 1.7 mph 4.6 mph 85 % 0.00 in
19:31 32.9 °F 28.9 °F 30.27 in SW 1.3 mph 3.5 mph 85 % 0.00 in
19:36 32.7 °F 28.7 °F 30.27 in SW 1.1 mph 2.3 mph 85 % 0.00 in
19:42 32.6 °F 28.9 °F 30.27 in SW 0.9 mph 2.3 mph 86 % 0.00 in
19:47 32.6 °F 29.2 °F 30.27 in SW 0.9 mph 2.3 mph 87 % 0.00 in
19:52 32.5 °F 28.8 °F 30.27 in SW 1.8 mph 3.5 mph 86 % 0.00 in
20:07 32.2 °F 28.5 °F 30.27 in SW 2.4 mph 4.0 mph 86 % 0.00 in
20:12 32.2 °F 28.5 °F 30.27 in SW 3.2 mph 4.6 mph 86 % 0.00 in
20:17 32.2 °F 28.5 °F 30.27 in SW 4.0 mph 5.0 mph 86 % 0.00 in
20:22 32.2 °F 28.8 °F 30.27 in SW 2.8 mph 4.6 mph 87 % 0.00 in
20:27 32.3 °F 28.9 °F 30.27 in SW 3.9 mph 5.8 mph 87 % 0.00 in
20:33 32.4 °F 28.7 °F 30.27 in SSW 2.3 mph 6.9 mph 86 % 0.00 in
20:38 32.5 °F 28.8 °F 30.27 in SSW 3.2 mph 4.6 mph 86 % 0.00 in
20:43 32.6 °F 28.3 °F 30.27 in SW 2.7 mph 4.0 mph 84 % 0.00 in
20:48 32.7 °F 28.1 °F 30.27 in SW 2.4 mph 4.6 mph 83 % 0.00 in
20:53 32.8 °F 28.2 °F 30.27 in SW 1.6 mph 2.3 mph 83 % 0.00 in
20:58 32.9 °F 28.0 °F 30.27 in SW 1.3 mph 3.5 mph 82 % 0.00 in
21:03 32.9 °F 28.0 °F 30.26 in SW 1.9 mph 3.5 mph 82 % 0.00 in
21:08 32.9 °F 27.7 °F 30.26 in SSW 0.8 mph 3.5 mph 81 % 0.00 in
21:13 33.0 °F 27.8 °F 30.27 in SSW 2.2 mph 4.6 mph 81 % 0.00 in
21:18 33.0 °F 27.8 °F 30.27 in SSW 2.7 mph 3.5 mph 81 % 0.00 in
21:24 33.0 °F 27.8 °F 30.27 in SW 1.4 mph 3.5 mph 81 % 0.00 in
21:29 33.0 °F 27.8 °F 30.27 in SSW 1.8 mph 3.5 mph 81 % 0.00 in
21:34 33.0 °F 27.8 °F 30.27 in SW 3.0 mph 4.6 mph 81 % 0.00 in
21:39 32.9 °F 27.7 °F 30.27 in SW 1.4 mph 3.5 mph 81 % 0.00 in
21:44 32.9 °F 27.7 °F 30.27 in SSW 2.2 mph 3.5 mph 81 % 0.00 in
21:49 32.8 °F 27.6 °F 30.27 in SSW 2.2 mph 3.5 mph 81 % 0.00 in
21:54 32.7 °F 27.8 °F 30.27 in SSW 1.8 mph 4.6 mph 82 % 0.00 in
21:59 32.6 °F 27.7 °F 30.27 in SSW 2.0 mph 3.5 mph 82 % 0.00 in
22:04 32.6 °F 27.7 °F 30.26 in SSW 2.3 mph 4.6 mph 82 % 0.00 in
22:09 32.5 °F 27.9 °F 30.26 in WSW 2.5 mph 9.0 mph 83 % 0.00 in
22:15 32.5 °F 27.6 °F 30.26 in SSW 3.1 mph 8.1 mph 82 % 0.00 in
22:20 32.5 °F 27.6 °F 30.26 in SW 3.6 mph 6.0 mph 82 % 0.00 in
22:25 32.6 °F 27.7 °F 30.26 in SW 2.4 mph 4.6 mph 82 % 0.00 in
22:30 32.6 °F 27.4 °F 30.26 in SSW 3.7 mph 5.8 mph 81 % 0.00 in
22:35 32.6 °F 27.4 °F 30.26 in WSW 3.0 mph 3.5 mph 81 % 0.00 in
22:40 32.6 °F 27.4 °F 30.25 in SSW 2.8 mph 4.6 mph 81 % 0.00 in
22:45 32.6 °F 27.4 °F 30.25 in SSW 2.4 mph 4.6 mph 81 % 0.00 in
22:50 32.6 °F 27.7 °F 30.26 in SSW 3.7 mph 3.7 mph 82 % 0.00 in
22:55 32.5 °F 27.3 °F 30.26 in SSW 2.9 mph 8.1 mph 81 % 0.00 in
23:00 32.5 °F 27.6 °F 30.26 in SSW 4.8 mph 6.9 mph 82 % 0.00 in
23:06 32.5 °F 27.3 °F 30.25 in WSW 3.6 mph 5.8 mph 81 % 0.00 in
23:11 32.5 °F 27.3 °F 30.25 in SW 2.9 mph 5.8 mph 81 % 0.00 in
23:16 32.6 °F 27.4 °F 30.25 in WSW 5.6 mph 8.1 mph 81 % 0.00 in
23:21 32.6 °F 27.4 °F 30.25 in WSW 5.4 mph 6.9 mph 81 % 0.00 in
23:26 32.7 °F 27.2 °F 30.25 in SW 3.8 mph 6.9 mph 80 % 0.00 in
23:31 32.8 °F 27.6 °F 30.25 in SW 3.7 mph 5.8 mph 81 % 0.00 in
23:36 32.8 °F 27.3 °F 30.25 in SSW 3.3 mph 5.8 mph 80 % 0.00 in
23:41 32.8 °F 27.3 °F 30.24 in SSW 2.0 mph 3.5 mph 80 % 0.00 in
23:46 32.9 °F 27.4 °F 30.24 in SSW 3.6 mph 9.2 mph 80 % 0.00 in
23:52 33.0 °F 27.8 °F 30.24 in SW 3.8 mph 9.2 mph 81 % 0.00 in
23:57 33.1 °F 27.6 °F 30.24 in SSW 3.8 mph 5.8 mph 80 % 0.00 in
Crab Meadow Weather
Compliments of Weather Underground - 2.75 mb

Script developed by  Jim McMurry - jmcmurry@mwt.net Adapted for the template by  Wim van der Kuil - Leuven-Template.eu

Pollen: Each year American vegetation spews forth some 1,000,000 tons of pollen into the air we breathe.